createdAt,value
2022-12-01T00:02:08.956Z,102395.06
2022-12-01T00:04:38.672Z,102393.97
2022-12-01T00:07:08.247Z,102392.16
2022-12-01T00:09:50.322Z,102398.47
2022-12-01T00:12:22.630Z,102390.31
2022-12-01T00:15:01.096Z,102399.16
2022-12-01T00:17:31.972Z,102402.78
2022-12-01T00:20:01.694Z,102400.34
2022-12-01T00:22:32.189Z,102402.31
2022-12-01T00:25:01.695Z,102403.97
2022-12-01T00:27:33.711Z,102408.16
2022-12-01T00:30:03.343Z,102412.25
2022-12-01T00:32:33.122Z,102406.63
2022-12-01T00:35:02.600Z,102415.22
2022-12-01T00:37:33.224Z,102423.50
2022-12-01T00:40:03.121Z,102426.19
2022-12-01T00:42:35.200Z,102430.13
2022-12-01T00:45:04.851Z,102426.66
2022-12-01T00:47:34.416Z,102434.78
2022-12-01T00:50:03.854Z,102434.47
2022-12-01T00:52:33.319Z,102438.06
2022-12-01T00:55:02.760Z,102443.16
2022-12-01T00:57:34.819Z,102450.09
2022-12-01T01:00:05.849Z,102450.41
2022-12-01T01:02:35.447Z,102450.13
2022-12-01T01:05:05.473Z,102461.97
2022-12-01T01:07:35.066Z,102462.44
2022-12-01T01:10:04.675Z,102465.59
2022-12-01T01:12:36.739Z,102463.78
2022-12-01T01:15:06.719Z,102472.03
2022-12-01T01:17:36.783Z,102473.25
2022-12-01T01:20:07.162Z,102470.25
2022-12-01T01:22:37.581Z,102472.34
2022-12-01T01:25:07.651Z,102475.78
2022-12-01T01:27:39.714Z,102469.31
2022-12-01T01:30:10.912Z,102467.69
2022-12-01T01:32:40.448Z,102463.63
2022-12-01T01:35:10.994Z,102464.38
2022-12-01T01:37:40.604Z,102463.94
2022-12-01T01:40:11.422Z,102455.97
2022-12-01T01:42:43.516Z,102461.84
2022-12-01T01:45:22.862Z,102460.03
2022-12-01T01:47:54.006Z,102459.72
2022-12-01T01:50:26.016Z,102460.78
2022-12-01T01:52:59.459Z,102452.38
2022-12-01T01:55:29.037Z,102455.38
2022-12-01T01:58:01.161Z,102458.25
2022-12-01T02:00:30.856Z,102453.13
2022-12-01T02:03:00.663Z,102451.94
2022-12-01T02:05:32.648Z,102455.09
2022-12-01T02:08:03.165Z,102456.44
2022-12-01T02:10:45.889Z,102445.47
2022-12-01T02:13:24.806Z,102446.06
2022-12-01T02:15:59.185Z,102446.84
2022-12-01T02:18:33.780Z,102440.53
2022-12-01T02:21:23.484Z,102443.22
2022-12-01T02:24:36.795Z,102444.88
2022-12-01T02:27:11.494Z,102447.56
2022-12-01T02:30:04.984Z,102451.47
2022-12-01T02:32:51.818Z,102450.44
2022-12-01T02:35:27.399Z,102446.66
2022-12-01T02:38:06.535Z,102439.00
2022-12-01T02:40:40.396Z,102448.31
2022-12-01T02:43:15.145Z,102447.72
2022-12-01T02:45:48.931Z,102445.16
2022-12-01T02:48:25.578Z,102453.41
2022-12-01T02:50:56.414Z,102449.97
2022-12-01T02:53:25.977Z,102452.53
2022-12-01T02:55:57.597Z,102452.81
2022-12-01T02:58:27.372Z,102452.38
2022-12-01T03:01:04.928Z,102457.31
2022-12-01T03:03:47.264Z,102454.47
2022-12-01T03:06:23.181Z,102457.03
2022-12-01T03:08:57.538Z,102456.84
2022-12-01T03:11:33.256Z,102451.00
2022-12-01T03:14:12.382Z,102449.78
2022-12-01T03:16:48.723Z,102453.97
2022-12-01T03:19:25.093Z,102454.59
2022-12-01T03:21:58.888Z,102457.16
2022-12-01T03:24:31.694Z,102453.09
2022-12-01T03:27:03.282Z,102456.09
2022-12-01T03:29:36.674Z,102454.72
2022-12-01T03:32:09.928Z,102452.78
2022-12-01T03:34:45.102Z,102462.06
2022-12-01T03:37:18.089Z,102459.53
2022-12-01T03:39:49.435Z,102463.59
2022-12-01T03:42:22.065Z,102464.28
2022-12-01T03:44:55.291Z,102460.28
2022-12-01T03:47:29.378Z,102463.56
2022-12-01T03:50:03.622Z,102450.31
2022-12-01T03:52:44.679Z,102452.16
2022-12-01T03:55:17.328Z,102460.50
2022-12-01T03:57:49.983Z,102443.34
2022-12-01T04:00:19.906Z,102444.84
2022-12-01T04:02:49.364Z,102444.34
2022-12-01T04:05:25.330Z,102451.16
2022-12-01T04:07:55.352Z,102462.91
2022-12-01T04:10:24.952Z,102473.78
2022-12-01T04:12:58.673Z,102477.41
2022-12-01T04:15:28.839Z,102492.50
2022-12-01T04:17:58.298Z,102506.84
2022-12-01T04:20:32.819Z,102524.84
2022-12-01T04:23:02.301Z,102525.06
2022-12-01T04:25:31.688Z,102536.94
2022-12-01T04:28:01.164Z,102540.84
2022-12-01T04:30:30.659Z,102543.81
2022-12-01T04:33:00.520Z,102543.66
2022-12-01T04:35:32.540Z,102547.38
2022-12-01T04:38:02.187Z,102546.00
2022-12-01T04:40:31.655Z,102547.38
2022-12-01T04:43:01.159Z,102549.78
2022-12-01T04:45:30.664Z,102541.66
2022-12-01T04:48:00.082Z,102550.94
2022-12-01T04:50:33.231Z,102540.72
2022-12-01T04:53:02.672Z,102541.63
2022-12-01T04:55:33.223Z,102538.63
2022-12-01T04:58:04.995Z,102537.72
2022-12-01T05:00:34.667Z,102533.97
2022-12-01T05:03:04.153Z,102539.81
2022-12-01T05:05:36.467Z,102535.88
2022-12-01T05:08:06.173Z,102534.84
2022-12-01T05:10:37.731Z,102537.06
2022-12-01T05:13:08.027Z,102536.94
2022-12-01T05:15:37.539Z,102540.41
2022-12-01T05:18:07.263Z,102537.41
2022-12-01T05:20:51.851Z,102528.03
2022-12-01T05:23:21.337Z,102531.22
2022-12-01T05:25:51.163Z,102530.59
2022-12-01T05:28:20.640Z,102528.38
2022-12-01T05:30:50.638Z,102527.00
2022-12-01T05:33:20.365Z,102533.13
2022-12-01T05:35:53.647Z,102534.34
2022-12-01T05:38:23.679Z,102534.22
2022-12-01T05:40:54.484Z,102532.88
2022-12-01T05:43:28.994Z,102529.88
2022-12-01T05:45:59.936Z,102529.13
2022-12-01T05:48:29.625Z,102524.44
2022-12-01T05:51:01.656Z,102529.25
2022-12-01T05:53:31.198Z,102524.44
2022-12-01T05:56:00.602Z,102518.47
2022-12-01T05:58:30.087Z,102519.69
2022-12-01T06:00:59.674Z,102518.75
2022-12-01T06:03:30.226Z,102517.13
2022-12-01T06:06:02.241Z,102517.13
2022-12-01T06:08:31.834Z,102522.94
2022-12-01T06:11:01.289Z,102523.41
2022-12-01T06:13:30.774Z,102520.25
2022-12-01T06:16:02.607Z,102516.97
2022-12-01T06:18:34.327Z,102526.69
2022-12-01T06:21:07.450Z,102521.16
2022-12-01T06:23:37.137Z,102518.59
2022-12-01T06:26:06.770Z,102518.13
2022-12-01T06:28:36.298Z,102523.19
2022-12-01T06:31:05.866Z,102518.44
2022-12-01T06:33:35.743Z,102527.72
2022-12-01T06:36:10.452Z,102522.94
2022-12-01T06:38:40.185Z,102522.03
2022-12-01T06:41:09.879Z,102531.63
2022-12-01T06:43:40.276Z,102528.91
2022-12-01T06:46:09.846Z,102534.72
2022-12-01T06:48:39.384Z,102535.19
2022-12-01T06:51:11.368Z,102533.97
2022-12-01T06:53:40.718Z,102530.06
2022-12-01T06:56:10.500Z,102528.25
2022-12-01T06:58:40.316Z,102530.34
2022-12-01T07:01:11.616Z,102536.06
2022-12-01T07:03:41.587Z,102535.19
2022-12-01T07:06:13.562Z,102538.94
2022-12-01T07:08:43.103Z,102543.28
2022-12-01T07:11:15.100Z,102551.81
2022-12-01T07:13:45.746Z,102549.59
2022-12-01T07:16:15.681Z,102546.69
2022-12-01T07:18:45.189Z,102544.13
2022-12-01T07:21:17.544Z,102549.22
2022-12-01T07:23:46.967Z,102548.94
2022-12-01T07:26:18.173Z,102554.91
2022-12-01T07:28:48.154Z,102553.59
2022-12-01T07:31:19.543Z,102553.53
2022-12-01T07:33:49.375Z,102547.44
2022-12-01T07:36:21.467Z,102533.47
2022-12-01T07:38:50.940Z,102541.53
2022-12-01T07:41:21.811Z,102545.53
2022-12-01T07:43:51.869Z,102556.22
2022-12-01T07:46:24.216Z,102577.13
2022-12-01T07:48:54.352Z,102581.66
2022-12-01T07:51:27.424Z,102600.31
2022-12-01T07:53:57.277Z,102611.75
2022-12-01T07:56:26.920Z,102626.75
2022-12-01T07:58:56.425Z,102632.88
2022-12-01T08:01:27.369Z,102625.50
2022-12-01T08:03:58.877Z,102633.28
2022-12-01T08:06:30.856Z,102644.94
2022-12-01T08:09:00.274Z,102641.91
2022-12-01T08:11:31.513Z,102642.53
2022-12-01T08:14:01.008Z,102649.69
2022-12-01T08:16:31.411Z,102648.09
2022-12-01T08:19:00.862Z,102646.25
2022-12-01T08:21:32.899Z,102662.13
2022-12-01T08:24:02.392Z,102651.88
2022-12-01T08:26:31.775Z,102649.31
2022-12-01T08:29:01.251Z,102651.09
2022-12-01T08:31:32.883Z,102652.50
2022-12-01T08:34:02.476Z,102657.78
2022-12-01T08:36:34.535Z,102649.38
2022-12-01T08:39:04.095Z,102638.72
2022-12-01T08:41:34.038Z,102643.97
2022-12-01T08:44:03.508Z,102640.97
2022-12-01T08:46:35.566Z,102643.22
2022-12-01T08:49:05.878Z,102650.53
2022-12-01T08:51:38.859Z,102652.66
2022-12-01T08:54:08.370Z,102646.97
2022-12-01T08:56:40.276Z,102646.84
2022-12-01T08:59:09.747Z,102655.69
2022-12-01T09:01:52.131Z,102659.91
2022-12-01T09:04:22.567Z,102653.50
2022-12-01T09:06:55.900Z,102662.47
2022-12-01T09:09:26.962Z,102663.78
2022-12-01T09:11:56.629Z,102667.50
2022-12-01T09:14:26.455Z,102661.59
2022-12-01T09:16:55.883Z,102669.38
2022-12-01T09:19:25.515Z,102648.22
2022-12-01T09:21:57.541Z,102657.38
2022-12-01T09:24:27.231Z,102655.53
2022-12-01T09:26:58.213Z,102664.84
2022-12-01T09:29:28.106Z,102669.03
2022-12-01T09:32:00.921Z,102668.03
2022-12-01T09:34:31.163Z,102665.59
2022-12-01T09:37:03.324Z,102668.19
2022-12-01T09:39:33.192Z,102671.22
2022-12-01T09:42:09.055Z,102668.50
2022-12-01T09:44:45.236Z,102666.69
2022-12-01T09:47:19.216Z,102670.00
2022-12-01T09:49:56.168Z,102666.47
2022-12-01T09:52:29.820Z,102661.53
2022-12-01T09:55:01.225Z,102672.19
2022-12-01T09:57:33.883Z,102665.53
2022-12-01T10:00:05.157Z,102664.66
2022-12-01T10:02:36.947Z,102666.16
2022-12-01T10:05:09.518Z,102670.88
2022-12-01T10:07:46.183Z,102672.66
2022-12-01T10:10:21.383Z,102676.75
2022-12-01T10:12:50.861Z,102680.81
2022-12-01T10:15:30.601Z,102683.75
2022-12-01T10:18:13.186Z,102682.88
2022-12-01T10:20:47.048Z,102688.50
2022-12-01T10:23:27.839Z,102682.44
2022-12-01T10:26:00.000Z,102688.75
2022-12-01T10:28:47.902Z,102679.72
2022-12-01T10:31:21.837Z,102684.84
2022-12-01T10:34:06.718Z,102685.28
2022-12-01T10:36:36.562Z,102681.59
2022-12-01T10:39:09.921Z,102696.97
2022-12-01T10:41:40.702Z,102682.56
2022-12-01T10:44:10.302Z,102672.31
2022-12-01T10:46:44.682Z,102682.53
2022-12-01T10:49:15.919Z,102679.81
2022-12-01T10:51:56.755Z,102684.94
2022-12-01T10:54:35.512Z,102681.16
2022-12-01T10:57:05.815Z,102694.38
2022-12-01T10:59:38.225Z,102707.47
2022-12-01T11:02:16.814Z,102707.75
2022-12-01T11:04:54.747Z,102724.94
2022-12-01T11:07:26.997Z,102715.53
2022-12-01T11:10:08.079Z,102724.69
2022-12-01T11:12:37.547Z,102721.69
2022-12-01T11:15:08.487Z,102716.66
2022-12-01T11:17:41.317Z,102712.25
2022-12-01T11:20:34.102Z,102717.28
2022-12-01T11:23:27.116Z,102722.28
2022-12-01T11:26:06.704Z,102712.19
2022-12-01T11:28:36.848Z,102714.81
2022-12-01T11:31:08.546Z,102704.66
2022-12-01T11:33:47.335Z,102707.72
2022-12-01T11:36:29.393Z,102697.81
2022-12-01T11:39:01.323Z,102704.63
2022-12-01T11:41:40.028Z,102706.75
2022-12-01T11:47:23.046Z,102702.94
2022-12-01T11:49:57.674Z,102706.31
2022-12-01T11:52:30.725Z,102709.91
2022-12-01T11:55:08.443Z,102706.31
2022-12-01T11:57:44.273Z,102705.41
2022-12-01T12:00:18.227Z,102694.63
2022-12-01T12:02:57.621Z,102696.94
2022-12-01T12:06:05.918Z,102697.28
2022-12-01T12:08:57.608Z,102686.34
2022-12-01T12:11:31.556Z,102684.44
2022-12-01T12:14:17.628Z,102682.81
2022-12-01T12:16:55.919Z,102684.19
2022-12-01T12:20:07.114Z,102683.72
2022-12-01T12:22:50.950Z,102682.47
2022-12-01T12:25:30.754Z,102685.19
2022-12-01T12:28:08.718Z,102683.97
2022-12-01T12:30:47.332Z,102682.72
2022-12-01T12:33:33.377Z,102674.84
2022-12-01T12:36:09.402Z,102680.03
2022-12-01T12:38:50.281Z,102673.13
2022-12-01T12:41:29.590Z,102670.19
2022-12-01T12:44:10.332Z,102671.25
2022-12-01T12:46:49.451Z,102662.94
2022-12-01T12:49:30.167Z,102663.81
2022-12-01T12:52:08.284Z,102665.47
2022-12-01T12:54:44.832Z,102659.47
2022-12-01T12:57:24.081Z,102659.00
2022-12-01T12:59:56.373Z,102652.25
2022-12-01T13:02:33.690Z,102649.75
2022-12-01T13:05:08.228Z,102652.25
2022-12-01T13:07:42.180Z,102656.03
2022-12-01T13:10:18.695Z,102648.41
2022-12-01T13:12:55.866Z,102650.03
2022-12-01T13:15:25.402Z,102648.63
2022-12-01T13:18:00.146Z,102648.41
2022-12-01T13:20:32.398Z,102646.81
2022-12-01T13:23:02.513Z,102640.19
2022-12-01T13:25:36.137Z,102649.28
2022-12-01T13:28:06.600Z,102643.81
2022-12-01T13:30:36.078Z,102651.44
2022-12-01T13:33:08.926Z,102654.72
2022-12-01T13:35:40.671Z,102651.34
2022-12-01T13:38:25.024Z,102654.53
2022-12-01T13:41:12.647Z,102655.09
2022-12-01T13:43:52.212Z,102647.16
2022-12-01T13:46:25.200Z,102647.09
2022-12-01T13:48:59.415Z,102633.78
2022-12-01T13:51:29.255Z,102639.19
2022-12-01T13:54:03.239Z,102636.16
2022-12-01T13:56:49.049Z,102637.22
2022-12-01T13:59:48.823Z,102629.84
2022-12-01T14:02:22.107Z,102628.66
2022-12-01T14:04:54.135Z,102629.56
2022-12-01T14:07:39.602Z,102636.44
2022-12-01T14:10:12.405Z,102625.31
2022-12-01T14:12:43.378Z,102632.03
2022-12-01T14:15:34.612Z,102628.75
2022-12-01T14:18:10.263Z,102628.03
2022-12-01T14:20:47.980Z,102622.69
2022-12-01T14:23:21.358Z,102621.53
2022-12-01T14:26:15.395Z,102623.25
2022-12-01T14:29:20.225Z,102612.59
2022-12-01T14:32:22.507Z,102619.88
2022-12-01T14:35:11.135Z,102607.78
2022-12-01T14:37:47.540Z,102612.72
2022-12-01T14:40:32.131Z,102612.81
2022-12-01T14:43:15.086Z,102614.41
2022-12-01T14:45:52.495Z,102615.25
2022-12-01T14:48:27.716Z,102614.59
2022-12-01T14:51:12.523Z,102615.06
2022-12-01T14:53:47.212Z,102629.66
2022-12-01T14:56:18.808Z,102638.63
2022-12-01T14:58:56.655Z,102637.69
2022-12-01T15:01:26.529Z,102649.63
2022-12-01T15:04:00.336Z,102650.03
2022-12-01T15:06:31.487Z,102656.84
2022-12-01T15:12:03.607Z,102647.84
2022-12-01T15:14:36.142Z,102654.06
2022-12-01T15:17:08.903Z,102654.47
2022-12-01T15:19:41.048Z,102649.94
2022-12-01T15:22:15.673Z,102635.97
2022-12-01T15:24:48.317Z,102644.84
2022-12-01T15:27:27.869Z,102647.88
2022-12-01T15:29:58.382Z,102633.91
2022-12-01T15:32:28.683Z,102634.09
2022-12-01T15:35:01.803Z,102635.41
2022-12-01T15:37:31.836Z,102634.50
2022-12-01T15:40:59.560Z,102630.56
2022-12-01T15:43:06.607Z,102636.72
2022-12-01T15:45:47.869Z,102636.97
2022-12-01T15:48:19.097Z,102638.34
2022-12-01T15:50:51.758Z,102636.31
2022-12-01T15:53:25.870Z,102635.16
2022-12-01T15:55:59.491Z,102634.09
2022-12-01T15:58:30.471Z,102630.06
2022-12-01T16:01:02.443Z,102640.75
2022-12-01T16:03:32.097Z,102638.69
2022-12-01T16:06:01.657Z,102638.53
2022-12-01T16:08:31.293Z,102640.31
2022-12-01T16:11:16.986Z,102635.50
2022-12-01T16:13:51.261Z,102644.34
2022-12-01T16:16:45.063Z,102643.03
2022-12-01T16:19:30.740Z,102652.84
2022-12-01T16:22:04.724Z,102651.59
2022-12-01T16:24:36.240Z,102652.16
2022-12-01T16:27:10.407Z,102650.59
2022-12-01T16:29:50.290Z,102645.00
2022-12-01T16:32:22.255Z,102643.59
2022-12-01T16:34:53.428Z,102645.97
2022-12-01T16:37:24.206Z,102646.53
2022-12-01T16:39:53.767Z,102651.97
2022-12-01T16:42:26.008Z,102648.84
2022-12-01T16:44:55.440Z,102645.06
2022-12-01T16:47:26.249Z,102651.22
2022-12-01T16:49:55.991Z,102648.94
2022-12-01T16:55:26.486Z,102648.34
2022-12-01T16:57:58.560Z,102647.44
2022-12-01T17:00:29.473Z,102645.06
2022-12-01T17:02:59.393Z,102642.00
2022-12-01T17:05:28.901Z,102639.41
2022-12-01T17:07:58.576Z,102641.59
2022-12-01T17:10:28.280Z,102642.34
2022-12-01T17:13:00.439Z,102643.16
2022-12-01T17:15:30.317Z,102636.59
2022-12-01T17:18:00.179Z,102637.84
2022-12-01T17:20:29.679Z,102631.81
2022-12-01T17:22:59.163Z,102636.91
2022-12-01T17:25:28.544Z,102629.13
2022-12-01T17:28:00.524Z,102633.66
2022-12-01T17:30:32.861Z,102629.72
2022-12-01T17:33:02.324Z,102630.72
2022-12-01T17:35:31.842Z,102631.84
2022-12-01T17:38:01.321Z,102634.97
2022-12-01T17:40:30.759Z,102638.44
2022-12-01T17:43:03.367Z,102633.16
2022-12-01T17:45:32.952Z,102629.56
2022-12-01T17:48:02.461Z,102632.78
2022-12-01T17:50:31.942Z,102636.38
2022-12-01T17:53:01.440Z,102632.41
2022-12-01T17:55:30.956Z,102630.91
2022-12-01T17:58:03.800Z,102633.78
2022-12-01T18:00:33.520Z,102635.59
2022-12-01T18:03:02.966Z,102629.56
2022-12-01T18:05:32.489Z,102627.56
2022-12-01T18:08:01.922Z,102629.63
2022-12-01T18:10:31.441Z,102626.50
2022-12-01T18:13:03.536Z,102628.13
2022-12-01T18:15:34.798Z,102627.19
2022-12-01T18:18:04.488Z,102619.78
2022-12-01T18:20:35.097Z,102621.44
2022-12-01T18:23:04.509Z,102620.13
2022-12-01T18:25:33.947Z,102610.63
2022-12-01T18:28:06.300Z,102611.63
2022-12-01T18:30:36.339Z,102603.50
2022-12-01T18:33:08.703Z,102601.28
2022-12-01T18:35:38.203Z,102608.81
2022-12-01T18:38:07.709Z,102614.06
2022-12-01T18:40:38.822Z,102610.63
2022-12-01T18:43:10.854Z,102610.56
2022-12-01T18:45:41.986Z,102611.97
2022-12-01T18:48:11.786Z,102615.19
2022-12-01T18:50:41.262Z,102604.19
2022-12-01T18:53:15.160Z,102607.88
2022-12-01T18:55:44.803Z,102610.75
2022-12-01T18:58:16.906Z,102617.72
2022-12-01T19:00:46.409Z,102613.88
2022-12-01T19:03:15.964Z,102610.03
2022-12-01T19:05:45.513Z,102613.97
2022-12-01T19:08:15.058Z,102611.44
2022-12-01T19:10:44.627Z,102613.41
2022-12-01T19:13:16.714Z,102620.97
2022-12-01T19:15:46.322Z,102624.88
2022-12-01T19:18:15.798Z,102615.69
2022-12-01T19:20:45.344Z,102617.06
2022-12-01T19:23:14.843Z,102617.94
2022-12-01T19:25:44.284Z,102624.06
2022-12-01T19:28:16.913Z,102615.69
2022-12-01T19:30:48.366Z,102621.50
2022-12-01T19:33:18.620Z,102620.78
2022-12-01T19:35:48.257Z,102616.91
2022-12-01T19:38:17.922Z,102612.19
2022-12-01T19:40:47.441Z,102606.50
2022-12-01T19:43:19.456Z,102617.94
2022-12-01T19:45:49.064Z,102608.16
2022-12-01T19:48:18.601Z,102615.63
2022-12-01T19:50:48.177Z,102619.88
2022-12-01T19:53:17.632Z,102611.59
2022-12-01T19:55:47.075Z,102619.88
2022-12-01T19:58:19.395Z,102617.84
2022-12-01T20:00:48.926Z,102627.38
2022-12-01T20:03:18.462Z,102624.97
2022-12-01T20:05:47.990Z,102630.16
2022-12-01T20:08:17.530Z,102634.50
2022-12-01T20:10:50.477Z,102625.59
2022-12-01T20:13:22.584Z,102626.09
2022-12-01T20:15:52.048Z,102628.00
2022-12-01T20:18:21.583Z,102629.09
2022-12-01T20:20:51.071Z,102629.25
2022-12-01T20:23:20.591Z,102629.16
2022-12-01T20:25:50.127Z,102632.31
2022-12-01T20:28:22.159Z,102619.84
2022-12-01T20:30:51.682Z,102602.19
2022-12-01T20:33:21.250Z,102605.41
2022-12-01T20:35:50.717Z,102603.47
2022-12-01T20:38:25.749Z,102622.91
2022-12-01T20:40:56.615Z,102631.47
2022-12-01T20:43:28.903Z,102635.91
2022-12-01T20:45:58.532Z,102628.84
2022-12-01T20:48:28.296Z,102627.94
2022-12-01T20:50:57.894Z,102630.25
2022-12-01T20:53:27.318Z,102630.31
2022-12-01T20:55:56.930Z,102636.63
2022-12-01T20:58:33.202Z,102634.44
2022-12-01T21:01:09.940Z,102628.69
2022-12-01T21:03:40.535Z,102622.00
2022-12-01T21:06:10.346Z,102630.50
2022-12-01T21:08:39.960Z,102632.38
2022-12-01T21:11:11.119Z,102633.44
2022-12-01T21:13:42.401Z,102633.50
2022-12-01T21:16:21.325Z,102644.84
2022-12-01T21:18:54.923Z,102642.94
2022-12-01T21:21:27.647Z,102643.94
2022-12-01T21:24:16.956Z,102647.75
2022-12-01T21:26:51.030Z,102648.16
2022-12-01T21:29:25.035Z,102639.63
2022-12-01T21:31:56.071Z,102656.53
2022-12-01T21:34:27.729Z,102647.97
2022-12-01T21:37:01.731Z,102645.44
2022-12-01T21:39:32.473Z,102645.03
2022-12-01T21:42:15.277Z,102642.47
2022-12-01T21:44:47.731Z,102638.22
2022-12-01T21:47:21.734Z,102646.28
2022-12-01T21:49:53.117Z,102639.25
2022-12-01T21:52:27.291Z,102638.13
2022-12-01T21:54:57.327Z,102639.38
2022-12-01T21:57:39.745Z,102635.31
2022-12-01T22:00:30.476Z,102635.22
2022-12-01T22:03:24.821Z,102631.28
2022-12-01T22:06:21.296Z,102634.44
2022-12-01T22:08:47.602Z,102632.25
2022-12-01T22:11:19.448Z,102626.75
2022-12-01T22:13:50.249Z,102622.97
2022-12-01T22:16:23.549Z,102630.78
2022-12-01T22:18:54.753Z,102623.22
2022-12-01T22:21:36.184Z,102620.41
2022-12-01T22:24:23.526Z,102621.94
2022-12-01T22:26:56.328Z,102624.25
2022-12-01T22:29:30.447Z,102624.63
2022-12-01T22:32:28.219Z,102626.75
2022-12-01T22:34:59.785Z,102626.03
2022-12-01T22:37:35.976Z,102625.22
2022-12-01T22:40:41.914Z,102628.38
2022-12-01T22:43:34.008Z,102624.25
2022-12-01T22:46:14.702Z,102619.25
2022-12-01T22:48:48.028Z,102618.81
2022-12-01T22:51:32.535Z,102624.50
2022-12-01T22:54:07.133Z,102621.06
2022-12-01T22:56:40.344Z,102625.06
2022-12-01T22:59:16.436Z,102630.28
2022-12-01T23:01:51.080Z,102628.41
2022-12-01T23:04:29.600Z,102620.03
2022-12-01T23:07:07.868Z,102631.34
2022-12-01T23:09:39.139Z,102628.06
2022-12-01T23:12:23.876Z,102629.50
2022-12-01T23:14:55.805Z,102625.06
2022-12-01T23:17:28.416Z,102627.47
2022-12-01T23:20:15.783Z,102631.34
2022-12-01T23:22:46.327Z,102624.38
2022-12-01T23:25:17.591Z,102625.50
2022-12-01T23:27:48.623Z,102632.00
2022-12-01T23:30:19.297Z,102630.88
2022-12-01T23:32:54.180Z,102622.59
2022-12-01T23:35:26.220Z,102626.13
2022-12-01T23:37:56.341Z,102621.59
2022-12-01T23:40:31.447Z,102622.16
2022-12-01T23:43:06.517Z,102613.16
2022-12-01T23:45:36.004Z,102611.47
2022-12-01T23:48:10.982Z,102620.38
2022-12-01T23:50:43.255Z,102610.88
2022-12-01T23:53:25.311Z,102614.44
2022-12-01T23:55:54.758Z,102607.09
2022-12-01T23:58:24.368Z,102610.22
